Time;durP1;ratioP1;P1;durP2;ratioP2;P2;SDS_P1;SDS_P2;PMS_P1;PMS_P2;Temp;Humidity;BMP_temperature;BMP_pressure;BME280_temperature;BME280_humidity;BME280_pressure;Samples;Min_cycle;Max_cycle;Signal;HPM_P1;HPM_P2
2022/11/07 00:01:36;;;;;;;10.67;5.70;;;;;;;;;;5008991;28;20192;-66
2022/11/07 00:04:03;;;;;;;8.67;4.63;;;;;;;;;;5009203;28;20196;-66
2022/11/07 00:06:30;;;;;;;11.87;6.27;;;;;;;;;;5008260;28;20754;-66
2022/11/07 00:08:57;;;;;;;14.30;6.87;;;;;;;;;;5024582;28;20282;-66
2022/11/07 00:11:23;;;;;;;13.90;6.63;;;;;;;;;;5015108;28;20670;-66
2022/11/07 00:13:50;;;;;;;11.03;5.50;;;;;;;;;;5029066;28;20298;-66
2022/11/07 00:16:17;;;;;;;11.17;5.77;;;;;;;;;;5028993;28;20230;-66
2022/11/07 00:18:43;;;;;;;12.13;7.17;;;;;;;;;;5028797;28;20641;-66
2022/11/07 00:21:10;;;;;;;15.37;6.43;;;;;;;;;;5028785;28;20195;-65
2022/11/07 00:23:38;;;;;;;11.77;5.90;;;;;;;;;;5028976;28;20180;-66
2022/11/07 00:26:08;;;;;;;14.60;5.97;;;;;;;;;;5027668;28;20192;-66
2022/11/07 00:28:35;;;;;;;15.53;7.17;;;;;;;;;;5027762;28;20429;-66
2022/11/07 00:31:02;;;;;;;12.70;6.33;;;;;;;;;;5028709;28;20520;-66
2022/11/07 00:33:29;;;;;;;13.83;7.30;;;;;;;;;;5019922;28;20255;-66
2022/11/07 00:35:55;;;;;;;12.50;6.20;;;;;;;;;;5009027;28;20228;-66
2022/11/07 00:38:22;;;;;;;9.33;4.60;;;;;;;;;;5009074;28;20672;-66
2022/11/07 00:40:55;;;;;;;16.53;7.43;;;;;;;;;;5007894;28;20644;-66
2022/11/07 00:43:21;;;;;;;13.67;6.97;;;;;;;;;;5011850;28;20219;-66
2022/11/07 00:45:48;;;;;;;12.77;6.17;;;;;;;;;;5027519;28;20462;-67
2022/11/07 00:48:15;;;;;;;14.47;7.67;;;;;;;;;;5012729;28;20200;-66
2022/11/07 00:50:41;;;;;;;14.80;7.17;;;;;;;;;;5016075;28;20282;-66
2022/11/07 00:53:08;;;;;;;14.80;7.97;;;;;;;;;;5012305;28;20543;-66
2022/11/07 00:55:34;;;;;;;12.93;7.03;;;;;;;;;;5012330;28;20757;-66
2022/11/07 00:58:01;;;;;;;16.30;7.83;;;;;;;;;;5012327;28;20187;-66
2022/11/07 01:00:28;;;;;;;15.20;6.90;;;;;;;;;;5011939;28;20242;-66
2022/11/07 01:05:41;;;;;;;13.90;7.63;;;;;;;;;;5013273;28;20203;-66
2022/11/07 01:08:07;;;;;;;16.10;7.73;;;;;;;;;;5031753;28;20211;-66
2022/11/07 01:10:39;;;;;;;18.67;8.30;;;;;;;;;;5031956;28;20187;-66
2022/11/07 01:13:05;;;;;;;13.43;7.27;;;;;;;;;;5030314;28;20291;-66
2022/11/07 01:15:32;;;;;;;13.20;7.43;;;;;;;;;;5031851;28;20311;-66
2022/11/07 01:17:59;;;;;;;15.10;8.37;;;;;;;;;;5031823;28;21006;-66
2022/11/07 01:20:25;;;;;;;16.90;8.07;;;;;;;;;;5030550;28;20206;-66
2022/11/07 01:22:52;;;;;;;15.27;7.60;;;;;;;;;;5030572;28;20202;-66
2022/11/07 01:25:19;;;;;;;18.60;7.90;;;;;;;;;;5011655;28;20184;-66
2022/11/07 01:27:45;;;;;;;16.53;7.57;;;;;;;;;;5011793;28;20211;-66
2022/11/07 01:30:12;;;;;;;16.40;7.77;;;;;;;;;;5011796;28;20196;-66
2022/11/07 01:32:38;;;;;;;16.30;7.83;;;;;;;;;;5012048;28;20196;-66
2022/11/07 01:35:05;;;;;;;15.27;7.87;;;;;;;;;;5011683;28;20200;-66
2022/11/07 01:37:32;;;;;;;17.67;7.90;;;;;;;;;;5011399;28;20218;-66
2022/11/07 01:39:58;;;;;;;16.53;8.77;;;;;;;;;;5011089;28;20220;-66
2022/11/07 01:42:25;;;;;;;17.43;8.67;;;;;;;;;;5011536;28;20204;-66
2022/11/07 01:44:54;;;;;;;15.93;8.33;;;;;;;;;;5012010;28;20226;-66
2022/11/07 01:47:21;;;;;;;20.27;9.30;;;;;;;;;;5011731;28;20197;-66
2022/11/07 01:50:06;;;;;;;17.90;8.20;;;;;;;;;;5036960;28;20285;-66
2022/11/07 01:52:33;;;;;;;17.07;8.60;;;;;;;;;;5030801;28;20219;-66
2022/11/07 01:55:21;;;;;;;17.07;8.93;;;;;;;;;;5028786;28;20187;-66
2022/11/07 01:57:52;;;;;;;16.90;8.63;;;;;;;;;;5013521;28;20203;-66
2022/11/07 02:00:36;;;;;;;20.07;8.77;;;;;;;;;;5029804;28;20174;-66
2022/11/07 02:03:07;;;;;;;14.33;9.07;;;;;;;;;;5030798;28;20925;-66
2022/11/07 02:05:52;;;;;;;16.37;9.70;;;;;;;;;;5031215;28;20266;-66
2022/11/07 02:08:19;;;;;;;10.33;6.27;;;;;;;;;;5029655;28;20257;-66
2022/11/07 02:10:45;;;;;;;17.40;9.33;;;;;;;;;;5029498;28;20195;-66
2022/11/07 02:13:13;;;;;;;18.73;9.73;;;;;;;;;;5030756;28;20274;-66
2022/11/07 02:15:40;;;;;;;17.47;9.33;;;;;;;;;;5028133;28;20199;-66
2022/11/07 02:18:07;;;;;;;22.00;8.77;;;;;;;;;;5029381;28;20215;-66
2022/11/07 02:20:34;;;;;;;17.27;9.37;;;;;;;;;;5030808;28;20246;-66
2022/11/07 02:23:03;;;;;;;18.43;8.60;;;;;;;;;;5030356;28;20180;-66
2022/11/07 02:25:30;;;;;;;18.03;8.90;;;;;;;;;;5029069;28;20214;-66
2022/11/07 02:27:57;;;;;;;17.30;8.83;;;;;;;;;;5030529;28;20713;-66
2022/11/07 02:30:27;;;;;;;18.77;9.47;;;;;;;;;;5030329;28;20202;-66
2022/11/07 02:32:54;;;;;;;17.73;9.30;;;;;;;;;;5015629;28;20200;-66
2022/11/07 02:35:40;;;;;;;17.07;9.27;;;;;;;;;;5010755;28;20219;-66
2022/11/07 02:38:11;;;;;;;14.50;9.13;;;;;;;;;;5010419;28;20198;-66
2022/11/07 02:40:37;;;;;;;18.30;9.73;;;;;;;;;;5009171;28;20192;-66
2022/11/07 02:43:04;;;;;;;16.03;9.90;;;;;;;;;;5010438;28;20184;-66
2022/11/07 02:45:32;;;;;;;18.13;10.07;;;;;;;;;;5025591;28;20184;-66
2022/11/07 02:47:59;;;;;;;21.20;10.00;;;;;;;;;;5025378;28;20599;-66
2022/11/07 02:50:25;;;;;;;22.70;10.87;;;;;;;;;;5025724;28;20254;-65
2022/11/07 02:52:52;;;;;;;20.40;10.63;;;;;;;;;;5027958;28;20183;-66
2022/11/07 02:55:19;;;;;;;19.73;10.13;;;;;;;;;;5045307;28;20242;-66
2022/11/07 02:57:45;;;;;;;21.47;11.13;;;;;;;;;;5029658;28;21107;-66
2022/11/07 03:00:12;;;;;;;17.87;8.27;;;;;;;;;;5029994;28;20329;-66
2022/11/07 03:02:39;;;;;;;25.33;11.13;;;;;;;;;;5028814;28;20215;-66
2022/11/07 03:05:06;;;;;;;20.87;11.30;;;;;;;;;;5029319;28;20250;-66
2022/11/07 03:07:32;;;;;;;19.47;10.90;;;;;;;;;;5028140;28;20211;-66
2022/11/07 03:09:59;;;;;;;19.27;11.17;;;;;;;;;;5029814;28;20195;-66
2022/11/07 03:12:25;;;;;;;20.53;11.63;;;;;;;;;;5028275;28;20192;-66
2022/11/07 03:14:52;;;;;;;24.60;11.03;;;;;;;;;;5030279;28;20270;-66
2022/11/07 03:17:19;;;;;;;19.90;12.03;;;;;;;;;;5044910;28;20211;-66
2022/11/07 03:19:45;;;;;;;18.10;11.73;;;;;;;;;;5029656;28;20191;-66
2022/11/07 03:22:12;;;;;;;19.97;11.30;;;;;;;;;;5029396;28;20273;-66
2022/11/07 03:24:38;;;;;;;20.83;10.87;;;;;;;;;;5029617;28;20191;-66
2022/11/07 03:27:05;;;;;;;21.33;10.93;;;;;;;;;;5029380;28;20233;-65
2022/11/07 03:29:49;;;;;;;24.40;12.77;;;;;;;;;;5028577;28;20662;-66
2022/11/07 03:32:15;;;;;;;23.23;12.23;;;;;;;;;;5027885;28;20219;-66
2022/11/07 03:35:00;;;;;;;24.80;10.77;;;;;;;;;;5012958;28;20179;-66
2022/11/07 03:37:26;;;;;;;22.27;10.57;;;;;;;;;;5009246;28;20248;-66
2022/11/07 03:39:53;;;;;;;28.27;12.87;;;;;;;;;;5009789;28;20192;-66
2022/11/07 03:42:19;;;;;;;26.83;13.47;;;;;;;;;;5008133;28;20994;-66
2022/11/07 03:44:46;;;;;;;25.80;13.43;;;;;;;;;;5009825;28;20565;-66
2022/11/07 03:47:32;;;;;;;26.30;12.90;;;;;;;;;;5009625;28;20172;-66
2022/11/07 03:49:58;;;;;;;23.87;13.17;;;;;;;;;;5036203;28;20310;-67
2022/11/07 03:52:43;;;;;;;24.93;13.37;;;;;;;;;;5029050;28;20317;-66
2022/11/07 03:55:10;;;;;;;23.17;13.07;;;;;;;;;;5017074;28;20188;-66
2022/11/07 03:57:37;;;;;;;25.10;13.90;;;;;;;;;;5009350;28;20302;-66
2022/11/07 04:00:04;;;;;;;23.90;13.63;;;;;;;;;;5009302;28;20192;-66
2022/11/07 04:02:37;;;;;;;18.73;13.23;;;;;;;;;;5009545;28;20609;-66
2022/11/07 04:05:21;;;;;;;24.43;13.23;;;;;;;;;;5009558;28;20191;-66
2022/11/07 04:07:47;;;;;;;24.33;14.60;;;;;;;;;;5007866;28;20211;-66
2022/11/07 04:10:14;;;;;;;27.40;14.67;;;;;;;;;;5009430;28;20571;-66
2022/11/07 04:18:11;;;;;;;27.30;13.93;;;;;;;;;;5031756;28;20717;-66
2022/11/07 04:20:38;;;;;;;25.30;13.73;;;;;;;;;;5033036;28;20290;-66
2022/11/07 04:23:04;;;;;;;25.43;14.20;;;;;;;;;;5032698;28;20195;-66
2022/11/07 04:28:16;;;;;;;26.90;14.67;;;;;;;;;;5032442;28;20270;-66
2022/11/07 04:30:43;;;;;;;24.90;15.03;;;;;;;;;;5032640;28;20195;-65
2022/11/07 04:33:09;;;;;;;26.73;15.20;;;;;;;;;;5032221;28;20187;-66
2022/11/07 04:35:36;;;;;;;24.73;14.10;;;;;;;;;;5031943;28;20184;-66
2022/11/07 04:38:03;;;;;;;24.67;14.47;;;;;;;;;;5032191;28;20253;-66
2022/11/07 04:40:29;;;;;;;28.17;15.17;;;;;;;;;;5032240;28;20267;-66
2022/11/07 04:42:56;;;;;;;23.60;14.93;;;;;;;;;;5032366;28;20643;-66
2022/11/07 04:45:23;;;;;;;23.87;13.93;;;;;;;;;;5032190;28;20222;-66
2022/11/07 04:47:50;;;;;;;26.87;14.43;;;;;;;;;;5032594;28;20278;-66
2022/11/07 04:50:17;;;;;;;25.17;14.63;;;;;;;;;;5017796;28;20255;-69
2022/11/07 04:52:44;;;;;;;29.07;14.70;;;;;;;;;;5014950;28;20200;-68
2022/11/07 04:55:15;;;;;;;25.07;15.03;;;;;;;;;;5032374;28;20223;-68
2022/11/07 04:57:42;;;;;;;29.73;14.97;;;;;;;;;;5025575;28;20231;-68
2022/11/07 05:00:09;;;;;;;23.23;15.20;;;;;;;;;;5036671;28;20204;-68
2022/11/07 05:02:36;;;;;;;30.83;15.63;;;;;;;;;;5030908;28;20230;-69
2022/11/07 05:05:03;;;;;;;26.30;15.17;;;;;;;;;;5029013;28;20241;-70
2022/11/07 05:07:29;;;;;;;28.30;16.23;;;;;;;;;;5039776;28;20471;-69
2022/11/07 05:09:57;;;;;;;26.23;15.57;;;;;;;;;;5032827;28;20279;-69
2022/11/07 05:12:23;;;;;;;30.33;15.23;;;;;;;;;;5029393;28;20445;-67
2022/11/07 05:14:50;;;;;;;27.30;15.90;;;;;;;;;;5031602;28;20686;-67
2022/11/07 05:17:17;;;;;;;30.50;16.27;;;;;;;;;;5034261;28;20714;-68
2022/11/07 05:19:44;;;;;;;30.70;16.83;;;;;;;;;;5031504;28;20525;-68
2022/11/07 05:24:56;;;;;;;29.60;16.07;;;;;;;;;;5031073;28;20191;-71
2022/11/07 05:27:22;;;;;;;27.93;15.67;;;;;;;;;;5029399;28;20991;-70
2022/11/07 05:29:49;;;;;;;28.30;16.47;;;;;;;;;;5037151;28;20446;-68
2022/11/07 05:32:36;;;;;;;28.53;16.03;;;;;;;;;;5028767;28;20199;-69
2022/11/07 05:35:04;;;;;;;32.77;17.17;;;;;;;;;;5024640;28;20460;-66
2022/11/07 05:37:31;;;;;;;26.07;16.30;;;;;;;;;;5028700;28;20291;-65
2022/11/07 05:39:57;;;;;;;31.43;16.93;;;;;;;;;;5031765;28;20495;-69
2022/11/07 05:42:24;;;;;;;29.13;17.63;;;;;;;;;;5025671;28;20202;-66
2022/11/07 05:44:50;;;;;;;29.93;16.30;;;;;;;;;;5034997;28;20303;-66
2022/11/07 05:47:17;;;;;;;29.43;16.80;;;;;;;;;;5025837;28;20765;-65
2022/11/07 05:49:44;;;;;;;30.53;17.27;;;;;;;;;;5034379;28;20283;-66
2022/11/07 05:52:10;;;;;;;29.53;17.37;;;;;;;;;;5027494;28;20486;-67
2022/11/07 05:54:37;;;;;;;31.43;16.40;;;;;;;;;;5027117;28;20457;-64
2022/11/07 05:57:04;;;;;;;28.93;16.33;;;;;;;;;;5029278;28;20313;-66
2022/11/07 05:59:30;;;;;;;35.43;17.50;;;;;;;;;;5025503;28;20825;-66
2022/11/07 06:01:57;;;;;;;32.50;16.90;;;;;;;;;;5032386;28;20469;-66
2022/11/07 06:04:24;;;;;;;30.07;17.83;;;;;;;;;;5027096;28;20282;-67
2022/11/07 06:06:50;;;;;;;36.67;17.23;;;;;;;;;;5030665;28;20430;-69
2022/11/07 06:09:17;;;;;;;34.50;17.53;;;;;;;;;;5029826;28;20422;-70
2022/11/07 06:11:44;;;;;;;34.13;18.27;;;;;;;;;;5031792;28;20807;-71
2022/11/07 06:14:11;;;;;;;33.47;17.90;;;;;;;;;;5025584;28;20435;-71
2022/11/07 06:16:38;;;;;;;37.07;18.80;;;;;;;;;;5028095;28;20445;-71
2022/11/07 06:19:05;;;;;;;36.57;19.07;;;;;;;;;;5027588;28;20214;-72
2022/11/07 06:21:33;;;;;;;41.80;18.90;;;;;;;;;;5030447;28;20498;-70
2022/11/07 06:23:59;;;;;;;35.90;19.47;;;;;;;;;;5033020;28;20444;-69
2022/11/07 06:26:26;;;;;;;39.70;21.00;;;;;;;;;;5032130;28;20445;-69
2022/11/07 06:28:53;;;;;;;43.47;21.43;;;;;;;;;;5029549;28;20803;-68
2022/11/07 06:31:20;;;;;;;42.23;22.00;;;;;;;;;;5038175;28;20706;-67
2022/11/07 06:33:50;;;;;;;38.93;20.87;;;;;;;;;;5038509;28;20521;-72
2022/11/07 06:36:17;;;;;;;47.10;23.23;;;;;;;;;;5026069;28;20230;-69
2022/11/07 06:38:44;;;;;;;37.23;19.00;;;;;;;;;;5028072;28;20225;-70
2022/11/07 06:41:11;;;;;;;45.63;20.50;;;;;;;;;;5021964;28;20187;-67
2022/11/07 06:43:38;;;;;;;47.33;22.37;;;;;;;;;;5030272;28;20524;-67
2022/11/07 06:46:05;;;;;;;34.43;18.20;;;;;;;;;;5029267;28;20179;-67
2022/11/07 06:48:32;;;;;;;42.40;21.13;;;;;;;;;;5019880;28;20942;-67
2022/11/07 06:50:59;;;;;;;36.87;19.50;;;;;;;;;;5028880;28;20280;-67
2022/11/07 06:53:26;;;;;;;36.50;19.83;;;;;;;;;;5012704;28;20651;-67
2022/11/07 06:55:52;;;;;;;37.40;19.00;;;;;;;;;;5030090;28;20449;-67
2022/11/07 06:58:19;;;;;;;45.17;21.70;;;;;;;;;;5022941;28;20521;-69
2022/11/07 07:00:46;;;;;;;41.50;22.93;;;;;;;;;;5025146;28;20223;-68
2022/11/07 07:03:13;;;;;;;45.53;21.00;;;;;;;;;;5027723;28;20670;-68
2022/11/07 07:05:41;;;;;;;39.57;20.00;;;;;;;;;;5022265;28;20535;-68
2022/11/07 07:08:08;;;;;;;41.00;21.37;;;;;;;;;;5025170;28;20201;-69
2022/11/07 07:10:39;;;;;;;42.93;20.20;;;;;;;;;;5028072;28;20191;-68
2022/11/07 07:13:06;;;;;;;44.47;20.97;;;;;;;;;;5031974;28;20204;-66
2022/11/07 07:15:33;;;;;;;41.53;21.37;;;;;;;;;;5031213;28;20441;-70
2022/11/07 07:18:16;;;;;;;41.03;19.53;;;;;;;;;;5034221;28;20223;-70
2022/11/07 07:20:44;;;;;;;37.03;19.83;;;;;;;;;;5030747;28;20451;-72
2022/11/07 07:23:11;;;;;;;38.17;19.77;;;;;;;;;;5027972;28;20441;-71
2022/11/07 07:25:37;;;;;;;41.40;19.20;;;;;;;;;;5025623;28;21077;-69
2022/11/07 07:28:04;;;;;;;40.20;21.47;;;;;;;;;;5026134;28;20443;-70
2022/11/07 07:30:31;;;;;;;38.17;19.97;;;;;;;;;;5030145;28;20456;-70
2022/11/07 07:32:57;;;;;;;43.67;21.03;;;;;;;;;;5013044;28;20477;-68
2022/11/07 07:35:24;;;;;;;38.97;21.47;;;;;;;;;;5024976;28;20202;-70
2022/11/07 07:37:51;;;;;;;43.33;21.27;;;;;;;;;;5026492;28;20223;-70
2022/11/07 07:40:18;;;;;;;38.83;19.13;;;;;;;;;;5024506;28;20863;-67
2022/11/07 07:42:44;;;;;;;40.60;21.57;;;;;;;;;;5029179;28;20542;-69
2022/11/07 07:45:11;;;;;;;38.73;20.13;;;;;;;;;;5038955;28;20212;-69
2022/11/07 07:47:38;;;;;;;40.70;20.27;;;;;;;;;;5031015;28;20437;-69
2022/11/07 07:50:06;;;;;;;39.63;21.03;;;;;;;;;;5031988;28;20234;-68
2022/11/07 07:52:32;;;;;;;40.70;21.63;;;;;;;;;;5034931;28;20188;-68
2022/11/07 07:54:59;;;;;;;36.47;19.57;;;;;;;;;;5035606;28;20434;-69
2022/11/07 07:57:44;;;;;;;38.20;19.97;;;;;;;;;;5015348;28;20555;-68
2022/11/07 08:00:11;;;;;;;35.20;19.50;;;;;;;;;;5012822;28;20947;-68
2022/11/07 08:02:38;;;;;;;37.37;20.43;;;;;;;;;;5025107;28;20249;-68
2022/11/07 08:05:05;;;;;;;37.70;19.50;;;;;;;;;;5012228;28;20198;-68
2022/11/07 08:07:32;;;;;;;36.33;19.73;;;;;;;;;;5013916;28;20227;-68
2022/11/07 08:09:59;;;;;;;39.07;20.30;;;;;;;;;;5029109;28;20195;-68
2022/11/07 08:12:46;;;;;;;33.90;19.30;;;;;;;;;;5030058;28;20183;-67
2022/11/07 08:15:13;;;;;;;36.67;19.00;;;;;;;;;;5031421;28;20558;-67
2022/11/07 08:17:39;;;;;;;32.87;17.73;;;;;;;;;;5024805;28;20208;-68
2022/11/07 08:20:08;;;;;;;35.30;19.00;;;;;;;;;;4993793;28;20220;-67
2022/11/07 08:22:35;;;;;;;34.07;20.00;;;;;;;;;;5021008;28;20191;-67
2022/11/07 08:25:02;;;;;;;36.27;20.37;;;;;;;;;;5029776;28;20286;-67
2022/11/07 08:27:29;;;;;;;35.27;20.07;;;;;;;;;;5020212;28;20200;-67
2022/11/07 08:29:56;;;;;;;39.70;19.77;;;;;;;;;;5029538;28;20184;-67
2022/11/07 08:32:23;;;;;;;38.10;20.20;;;;;;;;;;5020836;28;20192;-67
2022/11/07 08:34:50;;;;;;;36.00;19.53;;;;;;;;;;5010732;28;20246;-68
2022/11/07 08:37:16;;;;;;;44.13;21.40;;;;;;;;;;5016149;28;20188;-67
2022/11/07 08:39:43;;;;;;;37.00;19.93;;;;;;;;;;5024118;28;20187;-69
2022/11/07 08:42:10;;;;;;;38.87;19.77;;;;;;;;;;5036683;28;20215;-69
2022/11/07 08:44:36;;;;;;;34.90;19.67;;;;;;;;;;5042973;28;20232;-69
2022/11/07 08:47:03;;;;;;;36.17;19.00;;;;;;;;;;5014269;28;20279;-68
2022/11/07 08:49:34;;;;;;;40.10;21.70;;;;;;;;;;5034673;28;20183;-69
2022/11/07 08:52:01;;;;;;;35.40;20.60;;;;;;;;;;5030770;28;20281;-72
2022/11/07 08:54:28;;;;;;;33.97;20.67;;;;;;;;;;5035170;28;20213;-69
2022/11/07 08:56:54;;;;;;;36.30;19.17;;;;;;;;;;5038536;28;20662;-69
2022/11/07 08:59:21;;;;;;;33.30;20.30;;;;;;;;;;5022608;28;20215;-70
2022/11/07 09:01:48;;;;;;;32.67;19.57;;;;;;;;;;5036170;28;20237;-71
2022/11/07 09:04:35;;;;;;;30.03;17.63;;;;;;;;;;5035252;28;20195;-68
2022/11/07 09:07:02;;;;;;;30.33;17.63;;;;;;;;;;5036039;28;20198;-70
2022/11/07 09:09:28;;;;;;;35.90;20.17;;;;;;;;;;5012359;28;20630;-69
2022/11/07 09:11:55;;;;;;;31.17;18.53;;;;;;;;;;5039496;28;20265;-69
2022/11/07 09:14:22;;;;;;;30.20;19.13;;;;;;;;;;5032691;28;20195;-69
2022/11/07 09:16:48;;;;;;;33.33;19.53;;;;;;;;;;5034236;28;20285;-68
2022/11/07 09:19:15;;;;;;;35.10;19.13;;;;;;;;;;5036148;28;20226;-69
2022/11/07 09:22:00;;;;;;;34.67;20.23;;;;;;;;;;5030704;28;20195;-68
2022/11/07 09:24:28;;;;;;;34.27;18.83;;;;;;;;;;5036554;28;20201;-71
2022/11/07 09:26:58;;;;;;;37.30;21.47;;;;;;;;;;5017160;28;20188;-69
2022/11/07 09:29:42;;;;;;;34.73;20.30;;;;;;;;;;5025871;28;20187;-70
2022/11/07 09:32:30;;;;;;;33.80;19.63;;;;;;;;;;5011796;28;20203;-71
2022/11/07 09:35:11;;;;;;;33.30;19.27;;;;;;;;;;5014773;28;20184;-70
2022/11/07 09:37:38;;;;;;;33.10;18.27;;;;;;;;;;5019578;28;20683;-68
2022/11/07 09:40:05;;;;;;;33.50;19.23;;;;;;;;;;5022562;28;20219;-68
2022/11/07 09:42:40;;;;;;;32.30;17.37;;;;;;;;;;5014989;28;20247;-69
2022/11/07 09:45:09;;;;;;;32.13;18.80;;;;;;;;;;5007736;28;20739;-67
2022/11/07 09:47:37;;;;;;;33.77;18.23;;;;;;;;;;4997421;28;20195;-69
2022/11/07 09:50:22;;;;;;;26.93;17.13;;;;;;;;;;5024043;28;20227;-69
2022/11/07 09:53:09;;;;;;;34.50;19.73;;;;;;;;;;5021484;28;20192;-69
2022/11/07 09:55:37;;;;;;;32.00;18.93;;;;;;;;;;5034370;28;20817;-70
2022/11/07 09:58:05;;;;;;;31.37;17.53;;;;;;;;;;5028439;28;20537;-69
2022/11/07 10:00:31;;;;;;;31.30;18.30;;;;;;;;;;5007935;28;20200;-72
2022/11/07 10:02:58;;;;;;;30.70;18.87;;;;;;;;;;5008135;28;20262;-68
2022/11/07 10:05:35;;;;;;;31.80;19.00;;;;;;;;;;5028021;28;20199;-68
2022/11/07 10:08:05;;;;;;;27.23;18.17;;;;;;;;;;5016111;28;20206;-68
2022/11/07 10:10:37;;;;;;;29.03;18.47;;;;;;;;;;5023993;28;20219;-69
2022/11/07 10:13:04;;;;;;;27.47;17.67;;;;;;;;;;5052230;28;20710;-68
2022/11/07 10:15:50;;;;;;;30.53;17.77;;;;;;;;;;5007443;28;20188;-68
2022/11/07 10:18:23;;;;;;;29.63;16.43;;;;;;;;;;5010045;28;20231;-67
2022/11/07 10:20:53;;;;;;;28.23;16.50;;;;;;;;;;5027259;28;20180;-69
2022/11/07 10:23:56;;;;;;;27.00;16.37;;;;;;;;;;5027878;28;20295;-70
2022/11/07 10:26:24;;;;;;;26.83;17.17;;;;;;;;;;5026978;28;20254;-68
2022/11/07 10:29:13;;;;;;;27.13;16.57;;;;;;;;;;5023240;28;20848;-66
2022/11/07 10:31:42;;;;;;;26.23;15.10;;;;;;;;;;5014010;28;20194;-67
2022/11/07 10:34:29;;;;;;;29.73;16.77;;;;;;;;;;5023473;28;20223;-67
2022/11/07 10:36:56;;;;;;;24.20;15.80;;;;;;;;;;5006542;28;20208;-66
2022/11/07 10:39:23;;;;;;;25.23;15.27;;;;;;;;;;5026020;28;20215;-70
2022/11/07 10:41:53;;;;;;;19.07;10.87;;;;;;;;;;5023118;28;20219;-69
2022/11/07 10:44:22;;;;;;;25.93;15.57;;;;;;;;;;5014011;28;20202;-65
2022/11/07 10:46:49;;;;;;;26.67;16.50;;;;;;;;;;5006685;28;20239;-68
2022/11/07 10:49:20;;;;;;;25.43;16.27;;;;;;;;;;5012112;28;20196;-70
2022/11/07 10:51:48;;;;;;;26.73;14.43;;;;;;;;;;5011685;28;20235;-68
2022/11/07 10:54:24;;;;;;;25.57;15.27;;;;;;;;;;5025589;28;20183;-68
2022/11/07 10:57:01;;;;;;;28.53;16.23;;;;;;;;;;5022026;28;20655;-68
2022/11/07 10:59:29;;;;;;;26.80;15.30;;;;;;;;;;5020267;28;20258;-68
2022/11/07 11:02:02;;;;;;;29.03;13.97;;;;;;;;;;5022178;28;20191;-69
2022/11/07 11:04:30;;;;;;;30.83;16.30;;;;;;;;;;5032024;28;20278;-67
2022/11/07 11:07:01;;;;;;;21.33;11.43;;;;;;;;;;5020085;28;20196;-67
2022/11/07 11:09:28;;;;;;;29.10;16.17;;;;;;;;;;5020319;28;20544;-67
2022/11/07 11:11:55;;;;;;;24.53;14.87;;;;;;;;;;5031704;28;20191;-68
2022/11/07 11:14:22;;;;;;;29.77;14.83;;;;;;;;;;5026851;28;20235;-68
2022/11/07 11:16:51;;;;;;;27.50;15.53;;;;;;;;;;5027190;28;20203;-69
2022/11/07 11:19:19;;;;;;;23.57;15.43;;;;;;;;;;5025468;28;20883;-71
2022/11/07 11:21:46;;;;;;;24.63;14.07;;;;;;;;;;5029013;28;20749;-70
2022/11/07 11:24:25;;;;;;;23.97;13.90;;;;;;;;;;5025638;28;20195;-68
2022/11/07 11:26:52;;;;;;;25.93;15.03;;;;;;;;;;5029243;28;20192;-69
2022/11/07 11:29:21;;;;;;;25.93;15.47;;;;;;;;;;5034442;28;20609;-69
2022/11/07 11:31:49;;;;;;;23.50;14.50;;;;;;;;;;5032209;28;20206;-70
2022/11/07 11:34:16;;;;;;;20.63;11.70;;;;;;;;;;5031244;28;20249;-69
2022/11/07 11:36:44;;;;;;;24.93;14.10;;;;;;;;;;5033970;28;20720;-69
2022/11/07 11:39:15;;;;;;;22.53;14.77;;;;;;;;;;5029606;28;20210;-71
2022/11/07 11:41:51;;;;;;;25.83;14.00;;;;;;;;;;5046819;28;20184;-71
2022/11/07 11:44:21;;;;;;;24.87;14.13;;;;;;;;;;5022721;28;20249;-70
2022/11/07 11:46:52;;;;;;;24.30;13.60;;;;;;;;;;5020228;28;20277;-72
2022/11/07 11:49:20;;;;;;;24.83;13.53;;;;;;;;;;5010697;28;20192;-72
2022/11/07 11:51:49;;;;;;;20.10;13.07;;;;;;;;;;4995168;28;20224;-68
2022/11/07 11:54:15;;;;;;;23.63;14.87;;;;;;;;;;5016333;28;20195;-68
2022/11/07 11:56:45;;;;;;;24.90;13.23;;;;;;;;;;5030982;28;20525;-70
2022/11/07 11:59:21;;;;;;;22.50;13.27;;;;;;;;;;5014054;28;20305;-68
2022/11/07 12:01:52;;;;;;;16.83;10.60;;;;;;;;;;5023223;28;20195;-69
2022/11/07 12:04:25;;;;;;;22.13;12.90;;;;;;;;;;5037362;28;20187;-70
2022/11/07 12:06:53;;;;;;;20.73;12.30;;;;;;;;;;5036305;28;20254;-70
2022/11/07 12:09:37;;;;;;;22.00;12.33;;;;;;;;;;5018114;28;20200;-67
2022/11/07 12:12:04;;;;;;;20.13;11.77;;;;;;;;;;5017596;28;20196;-71
2022/11/07 12:14:31;;;;;;;19.00;11.73;;;;;;;;;;4997036;28;20311;-69
2022/11/07 12:17:01;;;;;;;19.67;11.17;;;;;;;;;;5030897;28;20219;-67
2022/11/07 12:19:34;;;;;;;17.43;11.50;;;;;;;;;;5024955;28;20614;-69
2022/11/07 12:22:00;;;;;;;15.13;9.47;;;;;;;;;;5020094;28;20274;-69
2022/11/07 12:24:30;;;;;;;17.67;9.70;;;;;;;;;;5020721;28;20266;-68
2022/11/07 12:27:15;;;;;;;17.97;10.90;;;;;;;;;;5021012;28;20216;-69
2022/11/07 12:29:55;;;;;;;18.87;11.30;;;;;;;;;;5013797;28;20207;-69
2022/11/07 12:32:40;;;;;;;17.90;10.93;;;;;;;;;;5030611;28;20202;-68
2022/11/07 12:35:23;;;;;;;20.13;10.93;;;;;;;;;;5025866;28;20188;-68
2022/11/07 12:38:02;;;;;;;20.63;11.03;;;;;;;;;;5025340;28;20265;-68
2022/11/07 12:40:33;;;;;;;18.37;11.27;;;;;;;;;;5010395;28;20204;-71
2022/11/07 12:43:06;;;;;;;18.73;10.80;;;;;;;;;;5010832;28;20219;-69
2022/11/07 12:45:33;;;;;;;18.87;11.87;;;;;;;;;;5027763;28;20194;-69
2022/11/07 12:48:03;;;;;;;19.70;11.77;;;;;;;;;;5027273;28;20727;-68
2022/11/07 12:50:53;;;;;;;23.67;12.20;;;;;;;;;;5012559;28;20686;-70
2022/11/07 12:53:38;;;;;;;16.30;9.63;;;;;;;;;;5008975;28;20279;-68
2022/11/07 12:56:16;;;;;;;20.17;10.83;;;;;;;;;;5009823;28;20390;-69
2022/11/07 12:58:43;;;;;;;15.53;8.63;;;;;;;;;;5012614;28;20219;-69
2022/11/07 13:01:11;;;;;;;17.10;10.50;;;;;;;;;;5009837;28;20192;-68
2022/11/07 13:03:39;;;;;;;18.97;11.27;;;;;;;;;;5009328;28;20199;-69
2022/11/07 13:06:24;;;;;;;17.07;10.60;;;;;;;;;;5016642;28;20203;-69
2022/11/07 13:09:00;;;;;;;20.57;11.07;;;;;;;;;;5018149;28;20222;-69
2022/11/07 13:11:36;;;;;;;22.20;11.00;;;;;;;;;;5027076;28;20206;-68
2022/11/07 13:14:02;;;;;;;18.90;10.47;;;;;;;;;;5014793;28;20191;-71
2022/11/07 13:16:30;;;;;;;18.23;10.03;;;;;;;;;;5008380;28;20180;-69
2022/11/07 13:19:29;;;;;;;18.53;10.60;;;;;;;;;;5010724;28;21469;-70
2022/11/07 13:21:59;;;;;;;18.73;9.77;;;;;;;;;;5005690;28;20226;-68
2022/11/07 13:24:26;;;;;;;14.03;9.33;;;;;;;;;;5006288;28;20668;-69
2022/11/07 13:26:52;;;;;;;19.40;10.03;;;;;;;;;;5019058;28;20199;-69
2022/11/07 13:29:35;;;;;;;12.27;7.17;;;;;;;;;;5000175;28;20847;-69
2022/11/07 13:32:06;;;;;;;20.63;10.23;;;;;;;;;;5010869;28;20192;-67
2022/11/07 13:34:38;;;;;;;22.00;10.70;;;;;;;;;;5011630;28;20199;-69
2022/11/07 13:37:07;;;;;;;17.23;10.60;;;;;;;;;;5034748;28;20824;-72
2022/11/07 13:39:34;;;;;;;17.13;9.57;;;;;;;;;;4990591;28;20223;-71
2022/11/07 13:42:01;;;;;;;17.23;10.30;;;;;;;;;;5010198;28;20200;-71
2022/11/07 13:44:30;;;;;;;15.23;8.93;;;;;;;;;;5017632;28;20204;-71
2022/11/07 13:46:58;;;;;;;19.67;9.23;;;;;;;;;;5009617;28;20757;-69
2022/11/07 13:49:26;;;;;;;15.57;9.00;;;;;;;;;;4993310;28;20254;-69
2022/11/07 13:51:53;;;;;;;15.73;8.93;;;;;;;;;;5033593;28;20253;-68
2022/11/07 13:54:39;;;;;;;15.97;8.90;;;;;;;;;;5016230;28;20184;-68
2022/11/07 13:57:06;;;;;;;16.73;9.47;;;;;;;;;;5010653;28;20211;-69
2022/11/07 13:59:53;;;;;;;11.83;7.87;;;;;;;;;;5017333;28;20748;-69
2022/11/07 14:02:23;;;;;;;15.27;8.60;;;;;;;;;;5027686;28;20199;-68
2022/11/07 14:04:51;;;;;;;14.87;9.07;;;;;;;;;;5025659;28;20191;-68
2022/11/07 14:07:42;;;;;;;16.27;8.00;;;;;;;;;;5017350;28;20282;-70
2022/11/07 14:10:21;;;;;;;14.67;8.67;;;;;;;;;;5027452;28;20198;-70
2022/11/07 14:12:50;;;;;;;15.40;8.00;;;;;;;;;;5038811;28;20561;-70
2022/11/07 14:15:18;;;;;;;13.10;8.43;;;;;;;;;;5006899;28;20192;-70
2022/11/07 14:17:47;;;;;;;14.00;8.10;;;;;;;;;;5002507;28;20782;-70
2022/11/07 14:20:15;;;;;;;18.37;8.80;;;;;;;;;;5007858;28;20243;-70
2022/11/07 14:22:49;;;;;;;13.53;9.20;;;;;;;;;;5013656;28;20278;-69
2022/11/07 14:25:27;;;;;;;15.27;8.63;;;;;;;;;;5010021;28;20929;-70
2022/11/07 14:27:54;;;;;;;12.93;8.80;;;;;;;;;;5012814;28;20196;-70
2022/11/07 14:30:20;;;;;;;18.63;9.33;;;;;;;;;;5024158;28;20187;-68
2022/11/07 14:32:53;;;;;;;15.33;8.83;;;;;;;;;;5019471;28;20278;-70
2022/11/07 14:35:21;;;;;;;15.03;8.90;;;;;;;;;;5017783;28;20188;-70
2022/11/07 14:37:48;;;;;;;14.30;8.80;;;;;;;;;;5022469;28;20198;-70
2022/11/07 14:40:15;;;;;;;13.93;8.47;;;;;;;;;;5024522;28;20208;-68
2022/11/07 14:42:42;;;;;;;14.13;9.33;;;;;;;;;;5009209;28;20196;-69
2022/11/07 14:45:16;;;;;;;16.30;8.87;;;;;;;;;;5031760;28;20191;-70
2022/11/07 14:48:03;;;;;;;14.40;8.10;;;;;;;;;;5021344;28;20575;-70
2022/11/07 14:50:30;;;;;;;17.87;8.50;;;;;;;;;;5024252;28;20218;-70